Annawan, Illinois
Current Conditions -  °F | °C
As of 7:35 AM on Friday 31 Oct 2014 (Local Time) from KSQI Reporting Station
Overcast Overcast  
Wind Chill: 25°   Ceiling: 3000
Heat Index: 36°   Visibility: 10mi
Dew Point: 23°   Wind: 21mph
Humidity: 60%   Direction: 360°N
Pressure: 30.22"   Gusts: 31mph
Location:  41.4°N, 89.9°W
Report Text: KSQI 311235Z AUTO 36018G27KT 10SM BKN030 OVC050 02/M05 A3022 RMK AO1
Loading
Personal Weather Stations






























Interactive Weather Map
Tropical Storm Tracking
New forecast layout! Learn more

10-Day Weather Forecast

Advertisements
Track Severe Weather on mobile